sensor_id;sensor_type;location;lat;lon;timestamp;P1;durP1;ratioP1;P2;durP2;ratioP2
73670;SDS011;61968;48.178;11.566;2023-07-02T00:02:07;1.65;;;1.48;;
73670;SDS011;61968;48.178;11.566;2023-07-02T00:04:34;2.08;;;1.73;;
73670;SDS011;61968;48.178;11.566;2023-07-02T00:07:00;1.88;;;1.30;;
73670;SDS011;61968;48.178;11.566;2023-07-02T00:09:29;1.65;;;1.30;;
73670;SDS011;61968;48.178;11.566;2023-07-02T00:11:56;1.17;;;1.17;;
73670;SDS011;61968;48.178;11.566;2023-07-02T00:14:24;1.77;;;1.48;;
73670;SDS011;61968;48.178;11.566;2023-07-02T00:16:50;1.15;;;1.02;;
73670;SDS011;61968;48.178;11.566;2023-07-02T00:19:17;3.60;;;1.70;;
73670;SDS011;61968;48.178;11.566;2023-07-02T00:21:43;2.20;;;1.50;;
73670;SDS011;61968;48.178;11.566;2023-07-02T00:24:10;1.98;;;1.40;;
73670;SDS011;61968;48.178;11.566;2023-07-02T00:26:37;1.55;;;1.40;;
73670;SDS011;61968;48.178;11.566;2023-07-02T00:29:05;1.55;;;1.45;;
73670;SDS011;61968;48.178;11.566;2023-07-02T00:31:34;3.92;;;1.65;;
73670;SDS011;61968;48.178;11.566;2023-07-02T00:34:01;1.75;;;1.65;;
73670;SDS011;61968;48.178;11.566;2023-07-02T00:36:28;1.95;;;1.42;;
73670;SDS011;61968;48.178;11.566;2023-07-02T00:38:56;2.40;;;1.60;;
73670;SDS011;61968;48.178;11.566;2023-07-02T00:41:23;1.98;;;1.30;;
73670;SDS011;61968;48.178;11.566;2023-07-02T00:43:50;1.90;;;1.80;;
73670;SDS011;61968;48.178;11.566;2023-07-02T00:46:19;3.15;;;1.73;;
73670;SDS011;61968;48.178;11.566;2023-07-02T00:48:49;1.40;;;1.20;;
73670;SDS011;61968;48.178;11.566;2023-07-02T00:51:17;1.65;;;1.30;;
73670;SDS011;61968;48.178;11.566;2023-07-02T00:53:45;1.30;;;1.20;;
73670;SDS011;61968;48.178;11.566;2023-07-02T00:56:12;3.83;;;1.45;;
73670;SDS011;61968;48.178;11.566;2023-07-02T00:58:39;1.65;;;1.27;;
73670;SDS011;61968;48.178;11.566;2023-07-02T01:01:13;1.35;;;1.25;;
73670;SDS011;61968;48.178;11.566;2023-07-02T01:03:50;2.05;;;1.15;;
73670;SDS011;61968;48.178;11.566;2023-07-02T01:06:22;2.30;;;1.20;;
73670;SDS011;61968;48.178;11.566;2023-07-02T01:08:53;0.95;;;0.95;;
73670;SDS011;61968;48.178;11.566;2023-07-02T01:11:21;1.05;;;1.00;;
73670;SDS011;61968;48.178;11.566;2023-07-02T01:13:51;1.27;;;1.15;;
73670;SDS011;61968;48.178;11.566;2023-07-02T01:16:21;1.27;;;1.17;;
73670;SDS011;61968;48.178;11.566;2023-07-02T01:18:48;2.83;;;1.45;;
73670;SDS011;61968;48.178;11.566;2023-07-02T01:21:20;1.33;;;0.98;;
73670;SDS011;61968;48.178;11.566;2023-07-02T01:23:48;0.98;;;0.90;;
73670;SDS011;61968;48.178;11.566;2023-07-02T01:26:15;1.13;;;0.90;;
73670;SDS011;61968;48.178;11.566;2023-07-02T01:28:41;1.10;;;0.98;;
73670;SDS011;61968;48.178;11.566;2023-07-02T01:31:08;1.02;;;1.00;;
73670;SDS011;61968;48.178;11.566;2023-07-02T01:33:34;0.73;;;0.73;;
73670;SDS011;61968;48.178;11.566;2023-07-02T01:36:01;1.30;;;1.20;;
73670;SDS011;61968;48.178;11.566;2023-07-02T01:38:29;0.93;;;0.93;;
73670;SDS011;61968;48.178;11.566;2023-07-02T01:40:55;0.82;;;0.82;;
73670;SDS011;61968;48.178;11.566;2023-07-02T01:43:22;1.00;;;1.00;;
73670;SDS011;61968;48.178;11.566;2023-07-02T01:45:48;0.85;;;0.75;;
73670;SDS011;61968;48.178;11.566;2023-07-02T01:48:15;1.15;;;0.80;;
73670;SDS011;61968;48.178;11.566;2023-07-02T01:50:42;1.10;;;1.00;;
73670;SDS011;61968;48.178;11.566;2023-07-02T01:53:08;3.58;;;1.20;;
73670;SDS011;61968;48.178;11.566;2023-07-02T01:55:36;2.13;;;0.93;;
73670;SDS011;61968;48.178;11.566;2023-07-02T01:58:02;1.35;;;0.70;;
73670;SDS011;61968;48.178;11.566;2023-07-02T02:00:29;0.80;;;0.52;;
73670;SDS011;61968;48.178;11.566;2023-07-02T02:02:55;0.80;;;0.77;;
73670;SDS011;61968;48.178;11.566;2023-07-02T02:05:22;0.70;;;0.70;;
73670;SDS011;61968;48.178;11.566;2023-07-02T02:07:48;0.80;;;0.80;;
73670;SDS011;61968;48.178;11.566;2023-07-02T02:10:15;0.70;;;0.70;;
73670;SDS011;61968;48.178;11.566;2023-07-02T02:12:43;1.00;;;0.88;;
73670;SDS011;61968;48.178;11.566;2023-07-02T02:15:09;0.95;;;0.80;;
73670;SDS011;61968;48.178;11.566;2023-07-02T02:17:38;1.15;;;1.05;;
73670;SDS011;61968;48.178;11.566;2023-07-02T02:20:05;1.02;;;0.90;;
73670;SDS011;61968;48.178;11.566;2023-07-02T02:22:33;1.23;;;0.77;;
73670;SDS011;61968;48.178;11.566;2023-07-02T02:24:59;0.73;;;0.73;;
73670;SDS011;61968;48.178;11.566;2023-07-02T02:27:26;0.70;;;0.70;;
73670;SDS011;61968;48.178;11.566;2023-07-02T02:29:54;0.90;;;0.85;;
73670;SDS011;61968;48.178;11.566;2023-07-02T02:32:20;1.05;;;0.80;;
73670;SDS011;61968;48.178;11.566;2023-07-02T02:34:47;1.17;;;1.00;;
73670;SDS011;61968;48.178;11.566;2023-07-02T02:37:14;0.98;;;0.98;;
73670;SDS011;61968;48.178;11.566;2023-07-02T02:39:40;0.60;;;0.60;;
73670;SDS011;61968;48.178;11.566;2023-07-02T02:42:07;1.20;;;1.10;;
73670;SDS011;61968;48.178;11.566;2023-07-02T02:44:33;0.82;;;0.73;;
73670;SDS011;61968;48.178;11.566;2023-07-02T02:47:01;0.80;;;0.80;;
73670;SDS011;61968;48.178;11.566;2023-07-02T02:49:29;1.15;;;0.98;;
73670;SDS011;61968;48.178;11.566;2023-07-02T02:51:56;1.55;;;1.05;;
73670;SDS011;61968;48.178;11.566;2023-07-02T02:54:22;1.02;;;0.82;;
73670;SDS011;61968;48.178;11.566;2023-07-02T02:56:49;1.35;;;1.25;;
73670;SDS011;61968;48.178;11.566;2023-07-02T02:59:15;0.90;;;0.80;;
73670;SDS011;61968;48.178;11.566;2023-07-02T03:01:42;0.90;;;0.75;;
73670;SDS011;61968;48.178;11.566;2023-07-02T03:04:09;1.58;;;0.90;;
73670;SDS011;61968;48.178;11.566;2023-07-02T03:06:36;1.05;;;0.82;;
73670;SDS011;61968;48.178;11.566;2023-07-02T03:09:02;0.70;;;0.70;;
73670;SDS011;61968;48.178;11.566;2023-07-02T03:11:29;1.02;;;0.93;;
73670;SDS011;61968;48.178;11.566;2023-07-02T03:13:55;1.65;;;1.13;;
73670;SDS011;61968;48.178;11.566;2023-07-02T03:16:22;1.00;;;1.00;;
73670;SDS011;61968;48.178;11.566;2023-07-02T03:18:48;0.90;;;0.90;;
73670;SDS011;61968;48.178;11.566;2023-07-02T03:21:17;0.82;;;0.80;;
73670;SDS011;61968;48.178;11.566;2023-07-02T03:23:43;1.38;;;0.93;;
73670;SDS011;61968;48.178;11.566;2023-07-02T03:26:10;1.65;;;1.20;;
73670;SDS011;61968;48.178;11.566;2023-07-02T03:28:36;1.33;;;1.13;;
73670;SDS011;61968;48.178;11.566;2023-07-02T03:31:03;2.75;;;1.60;;
73670;SDS011;61968;48.178;11.566;2023-07-02T03:33:29;1.60;;;1.23;;
73670;SDS011;61968;48.178;11.566;2023-07-02T03:35:56;1.13;;;1.00;;
73670;SDS011;61968;48.178;11.566;2023-07-02T03:38:23;1.30;;;1.08;;
73670;SDS011;61968;48.178;11.566;2023-07-02T03:40:50;1.48;;;1.35;;
73670;SDS011;61968;48.178;11.566;2023-07-02T03:43:17;2.08;;;1.35;;
73670;SDS011;61968;48.178;11.566;2023-07-02T03:45:43;2.30;;;1.30;;
73670;SDS011;61968;48.178;11.566;2023-07-02T03:48:10;3.53;;;1.55;;
73670;SDS011;61968;48.178;11.566;2023-07-02T03:50:36;1.85;;;1.30;;
73670;SDS011;61968;48.178;11.566;2023-07-02T03:53:03;1.58;;;1.48;;
73670;SDS011;61968;48.178;11.566;2023-07-02T03:55:31;1.45;;;1.20;;
73670;SDS011;61968;48.178;11.566;2023-07-02T03:57:57;1.98;;;1.67;;
73670;SDS011;61968;48.178;11.566;2023-07-02T04:00:24;1.58;;;1.30;;
73670;SDS011;61968;48.178;11.566;2023-07-02T04:02:50;5.28;;;1.90;;
73670;SDS011;61968;48.178;11.566;2023-07-02T04:05:16;5.05;;;1.48;;
73670;SDS011;61968;48.178;11.566;2023-07-02T04:07:43;2.08;;;1.80;;
73670;SDS011;61968;48.178;11.566;2023-07-02T04:10:10;1.42;;;1.30;;
73670;SDS011;61968;48.178;11.566;2023-07-02T04:12:37;1.88;;;1.10;;
73670;SDS011;61968;48.178;11.566;2023-07-02T04:15:04;4.00;;;1.70;;
73670;SDS011;61968;48.178;11.566;2023-07-02T04:17:32;1.52;;;1.35;;
73670;SDS011;61968;48.178;11.566;2023-07-02T04:19:59;2.88;;;1.70;;
73670;SDS011;61968;48.178;11.566;2023-07-02T04:22:28;1.60;;;1.30;;
73670;SDS011;61968;48.178;11.566;2023-07-02T04:24:54;1.70;;;1.05;;
73670;SDS011;61968;48.178;11.566;2023-07-02T04:27:21;1.83;;;1.10;;
73670;SDS011;61968;48.178;11.566;2023-07-02T04:29:49;3.53;;;2.38;;
73670;SDS011;61968;48.178;11.566;2023-07-02T04:32:16;2.03;;;1.50;;
73670;SDS011;61968;48.178;11.566;2023-07-02T04:34:42;3.97;;;1.27;;
73670;SDS011;61968;48.178;11.566;2023-07-02T04:37:09;1.42;;;1.10;;
73670;SDS011;61968;48.178;11.566;2023-07-02T04:39:35;1.88;;;1.42;;
73670;SDS011;61968;48.178;11.566;2023-07-02T04:42:02;2.75;;;1.33;;
73670;SDS011;61968;48.178;11.566;2023-07-02T04:44:29;2.03;;;1.25;;
73670;SDS011;61968;48.178;11.566;2023-07-02T04:46:57;2.10;;;1.10;;
73670;SDS011;61968;48.178;11.566;2023-07-02T04:49:24;2.53;;;1.30;;
73670;SDS011;61968;48.178;11.566;2023-07-02T04:51:51;3.80;;;1.33;;
73670;SDS011;61968;48.178;11.566;2023-07-02T04:54:18;1.77;;;1.05;;
73670;SDS011;61968;48.178;11.566;2023-07-02T04:56:45;3.03;;;1.70;;
73670;SDS011;61968;48.178;11.566;2023-07-02T04:59:12;3.53;;;1.63;;
73670;SDS011;61968;48.178;11.566;2023-07-02T05:01:38;3.42;;;1.70;;
73670;SDS011;61968;48.178;11.566;2023-07-02T05:04:06;2.88;;;1.73;;
73670;SDS011;61968;48.178;11.566;2023-07-02T05:06:32;2.65;;;1.20;;
73670;SDS011;61968;48.178;11.566;2023-07-02T05:08:59;1.63;;;1.50;;
73670;SDS011;61968;48.178;11.566;2023-07-02T05:11:25;3.55;;;1.42;;
73670;SDS011;61968;48.178;11.566;2023-07-02T05:13:52;2.10;;;1.30;;
73670;SDS011;61968;48.178;11.566;2023-07-02T05:16:18;2.10;;;1.70;;
73670;SDS011;61968;48.178;11.566;2023-07-02T05:18:45;1.90;;;1.30;;
73670;SDS011;61968;48.178;11.566;2023-07-02T05:21:12;1.30;;;1.20;;
73670;SDS011;61968;48.178;11.566;2023-07-02T05:23:43;2.22;;;1.35;;
73670;SDS011;61968;48.178;11.566;2023-07-02T05:26:10;2.28;;;1.50;;
73670;SDS011;61968;48.178;11.566;2023-07-02T05:28:36;2.85;;;1.40;;
73670;SDS011;61968;48.178;11.566;2023-07-02T05:31:03;5.95;;;1.27;;
73670;SDS011;61968;48.178;11.566;2023-07-02T05:33:29;3.35;;;1.50;;
73670;SDS011;61968;48.178;11.566;2023-07-02T05:35:58;2.42;;;1.17;;
73670;SDS011;61968;48.178;11.566;2023-07-02T05:38:26;1.98;;;1.70;;
73670;SDS011;61968;48.178;11.566;2023-07-02T05:40:52;1.45;;;1.35;;
73670;SDS011;61968;48.178;11.566;2023-07-02T05:43:19;3.40;;;1.58;;
73670;SDS011;61968;48.178;11.566;2023-07-02T05:45:45;3.00;;;1.30;;
73670;SDS011;61968;48.178;11.566;2023-07-02T05:48:12;2.05;;;1.60;;
73670;SDS011;61968;48.178;11.566;2023-07-02T05:50:38;1.40;;;1.30;;
73670;SDS011;61968;48.178;11.566;2023-07-02T05:53:05;1.80;;;1.25;;
73670;SDS011;61968;48.178;11.566;2023-07-02T05:55:32;2.05;;;1.73;;
73670;SDS011;61968;48.178;11.566;2023-07-02T05:57:59;1.83;;;1.08;;
73670;SDS011;61968;48.178;11.566;2023-07-02T06:00:27;3.33;;;1.40;;
73670;SDS011;61968;48.178;11.566;2023-07-02T06:02:54;1.35;;;1.02;;
73670;SDS011;61968;48.178;11.566;2023-07-02T06:05:20;2.17;;;1.55;;
73670;SDS011;61968;48.178;11.566;2023-07-02T06:07:47;1.40;;;1.30;;
73670;SDS011;61968;48.178;11.566;2023-07-02T06:10:13;4.78;;;3.75;;
73670;SDS011;61968;48.178;11.566;2023-07-02T06:12:41;48.55;;;32.92;;
73670;SDS011;61968;48.178;11.566;2023-07-02T06:15:08;6.10;;;4.40;;
73670;SDS011;61968;48.178;11.566;2023-07-02T06:17:35;6.28;;;4.20;;
73670;SDS011;61968;48.178;11.566;2023-07-02T06:20:02;6.18;;;4.22;;
73670;SDS011;61968;48.178;11.566;2023-07-02T06:22:30;5.97;;;4.03;;
73670;SDS011;61968;48.178;11.566;2023-07-02T06:24:57;7.40;;;5.50;;
73670;SDS011;61968;48.178;11.566;2023-07-02T06:27:23;6.28;;;4.78;;
73670;SDS011;61968;48.178;11.566;2023-07-02T06:29:51;5.22;;;3.60;;
73670;SDS011;61968;48.178;11.566;2023-07-02T06:32:18;4.03;;;2.85;;
73670;SDS011;61968;48.178;11.566;2023-07-02T06:34:44;3.92;;;3.20;;
73670;SDS011;61968;48.178;11.566;2023-07-02T06:37:11;9.07;;;3.10;;
73670;SDS011;61968;48.178;11.566;2023-07-02T06:39:38;7.93;;;3.35;;
73670;SDS011;61968;48.178;11.566;2023-07-02T06:42:04;3.35;;;2.70;;
73670;SDS011;61968;48.178;11.566;2023-07-02T06:44:31;2.75;;;2.45;;
73670;SDS011;61968;48.178;11.566;2023-07-02T06:46:59;3.50;;;2.10;;
73670;SDS011;61968;48.178;11.566;2023-07-02T06:49:25;4.68;;;2.00;;
73670;SDS011;61968;48.178;11.566;2023-07-02T06:51:51;6.03;;;2.58;;
73670;SDS011;61968;48.178;11.566;2023-07-02T06:54:18;2.55;;;2.20;;
73670;SDS011;61968;48.178;11.566;2023-07-02T06:56:47;2.65;;;1.95;;
73670;SDS011;61968;48.178;11.566;2023-07-02T06:59:18;3.85;;;1.77;;
73670;SDS011;61968;48.178;11.566;2023-07-02T07:01:45;2.50;;;1.70;;
73670;SDS011;61968;48.178;11.566;2023-07-02T07:04:12;2.05;;;1.63;;
73670;SDS011;61968;48.178;11.566;2023-07-02T07:06:39;2.40;;;1.90;;
73670;SDS011;61968;48.178;11.566;2023-07-02T07:09:05;2.42;;;1.58;;
73670;SDS011;61968;48.178;11.566;2023-07-02T07:11:32;1.98;;;1.70;;
73670;SDS011;61968;48.178;11.566;2023-07-02T07:13:58;3.17;;;2.15;;
73670;SDS011;61968;48.178;11.566;2023-07-02T07:16:25;5.40;;;2.10;;
73670;SDS011;61968;48.178;11.566;2023-07-02T07:18:51;2.40;;;1.90;;
73670;SDS011;61968;48.178;11.566;2023-07-02T07:21:19;2.20;;;1.70;;
73670;SDS011;61968;48.178;11.566;2023-07-02T07:23:45;2.42;;;1.83;;
73670;SDS011;61968;48.178;11.566;2023-07-02T07:26:12;2.72;;;1.60;;
73670;SDS011;61968;48.178;11.566;2023-07-02T07:28:38;4.35;;;1.60;;
73670;SDS011;61968;48.178;11.566;2023-07-02T07:31:05;5.10;;;1.95;;
73670;SDS011;61968;48.178;11.566;2023-07-02T07:33:31;2.13;;;1.60;;
73670;SDS011;61968;48.178;11.566;2023-07-02T07:35:58;2.78;;;2.25;;
73670;SDS011;61968;48.178;11.566;2023-07-02T07:38:26;2.45;;;1.70;;
73670;SDS011;61968;48.178;11.566;2023-07-02T07:40:53;2.00;;;1.80;;
73670;SDS011;61968;48.178;11.566;2023-07-02T07:43:19;4.63;;;1.60;;
73670;SDS011;61968;48.178;11.566;2023-07-02T07:45:46;2.58;;;1.55;;
73670;SDS011;61968;48.178;11.566;2023-07-02T07:48:12;10.45;;;2.10;;
73670;SDS011;61968;48.178;11.566;2023-07-02T07:50:39;4.75;;;1.80;;
73670;SDS011;61968;48.178;11.566;2023-07-02T07:53:05;1.80;;;1.70;;
73670;SDS011;61968;48.178;11.566;2023-07-02T07:55:33;2.80;;;2.08;;
73670;SDS011;61968;48.178;11.566;2023-07-02T07:57:59;4.43;;;2.45;;
73670;SDS011;61968;48.178;11.566;2023-07-02T08:00:26;4.63;;;1.95;;
73670;SDS011;61968;48.178;11.566;2023-07-02T08:02:53;4.43;;;1.80;;
73670;SDS011;61968;48.178;11.566;2023-07-02T08:05:20;1.60;;;1.50;;
73670;SDS011;61968;48.178;11.566;2023-07-02T08:07:47;2.25;;;1.30;;
73670;SDS011;61968;48.178;11.566;2023-07-02T08:10:13;4.57;;;2.17;;
73670;SDS011;61968;48.178;11.566;2023-07-02T08:12:41;3.05;;;1.92;;
73670;SDS011;61968;48.178;11.566;2023-07-02T08:15:08;2.53;;;2.00;;
73670;SDS011;61968;48.178;11.566;2023-07-02T08:17:34;1.85;;;1.73;;
73670;SDS011;61968;48.178;11.566;2023-07-02T08:20:01;3.42;;;1.70;;
73670;SDS011;61968;48.178;11.566;2023-07-02T08:22:29;3.70;;;2.40;;
73670;SDS011;61968;48.178;11.566;2023-07-02T08:24:56;2.95;;;1.95;;
73670;SDS011;61968;48.178;11.566;2023-07-02T08:27:22;2.92;;;1.60;;
73670;SDS011;61968;48.178;11.566;2023-07-02T08:29:50;3.88;;;1.92;;
73670;SDS011;61968;48.178;11.566;2023-07-02T08:32:16;3.45;;;2.08;;
73670;SDS011;61968;48.178;11.566;2023-07-02T08:34:43;3.60;;;1.85;;
73670;SDS011;61968;48.178;11.566;2023-07-02T08:37:09;3.13;;;1.92;;
73670;SDS011;61968;48.178;11.566;2023-07-02T08:39:36;8.43;;;1.65;;
73670;SDS011;61968;48.178;11.566;2023-07-02T08:42:05;6.43;;;2.50;;
73670;SDS011;61968;48.178;11.566;2023-07-02T08:44:32;3.08;;;1.77;;
73670;SDS011;61968;48.178;11.566;2023-07-02T08:46:59;2.08;;;1.50;;
73670;SDS011;61968;48.178;11.566;2023-07-02T08:49:27;4.72;;;1.77;;
73670;SDS011;61968;48.178;11.566;2023-07-02T08:51:54;11.35;;;7.68;;
73670;SDS011;61968;48.178;11.566;2023-07-02T08:54:20;12.50;;;7.93;;
73670;SDS011;61968;48.178;11.566;2023-07-02T08:56:47;8.68;;;2.50;;
73670;SDS011;61968;48.178;11.566;2023-07-02T08:59:13;3.17;;;2.80;;
73670;SDS011;61968;48.178;11.566;2023-07-02T09:01:46;3.95;;;2.70;;
73670;SDS011;61968;48.178;11.566;2023-07-02T09:04:18;4.70;;;2.05;;
73670;SDS011;61968;48.178;11.566;2023-07-02T09:06:46;4.45;;;2.58;;
73670;SDS011;61968;48.178;11.566;2023-07-02T09:09:12;2.00;;;1.80;;
73670;SDS011;61968;48.178;11.566;2023-07-02T09:11:48;2.25;;;2.00;;
73670;SDS011;61968;48.178;11.566;2023-07-02T09:14:25;2.15;;;1.92;;
73670;SDS011;61968;48.178;11.566;2023-07-02T09:17:03;4.75;;;2.50;;
73670;SDS011;61968;48.178;11.566;2023-07-02T09:19:32;8.25;;;2.28;;
73670;SDS011;61968;48.178;11.566;2023-07-02T09:21:59;6.53;;;2.60;;
73670;SDS011;61968;48.178;11.566;2023-07-02T09:24:26;5.85;;;2.30;;
73670;SDS011;61968;48.178;11.566;2023-07-02T09:26:55;3.80;;;1.75;;
73670;SDS011;61968;48.178;11.566;2023-07-02T09:29:23;5.35;;;1.73;;
73670;SDS011;61968;48.178;11.566;2023-07-02T09:31:53;5.00;;;1.30;;
73670;SDS011;61968;48.178;11.566;2023-07-02T09:34:20;13.95;;;2.92;;
73670;SDS011;61968;48.178;11.566;2023-07-02T09:36:55;6.20;;;1.88;;
73670;SDS011;61968;48.178;11.566;2023-07-02T09:39:25;4.55;;;1.75;;
73670;SDS011;61968;48.178;11.566;2023-07-02T09:41:53;3.35;;;1.58;;
73670;SDS011;61968;48.178;11.566;2023-07-02T09:44:21;7.47;;;1.77;;
73670;SDS011;61968;48.178;11.566;2023-07-02T09:46:48;2.80;;;1.30;;
73670;SDS011;61968;48.178;11.566;2023-07-02T09:49:22;3.38;;;1.58;;
73670;SDS011;61968;48.178;11.566;2023-07-02T09:51:49;8.68;;;1.40;;
73670;SDS011;61968;48.178;11.566;2023-07-02T09:54:18;1.08;;;0.98;;
73670;SDS011;61968;48.178;11.566;2023-07-02T09:56:46;4.20;;;1.80;;
73670;SDS011;61968;48.178;11.566;2023-07-02T09:59:12;3.13;;;1.77;;
73670;SDS011;61968;48.178;11.566;2023-07-02T10:01:39;2.70;;;1.70;;
73670;SDS011;61968;48.178;11.566;2023-07-02T10:04:12;3.08;;;1.60;;
73670;SDS011;61968;48.178;11.566;2023-07-02T10:06:46;4.95;;;1.60;;
73670;SDS011;61968;48.178;11.566;2023-07-02T10:09:13;1.50;;;1.40;;
73670;SDS011;61968;48.178;11.566;2023-07-02T10:11:41;1.92;;;1.58;;
73670;SDS011;61968;48.178;11.566;2023-07-02T10:14:08;2.40;;;2.20;;
73670;SDS011;61968;48.178;11.566;2023-07-02T10:16:47;3.58;;;1.90;;
73670;SDS011;61968;48.178;11.566;2023-07-02T10:19:14;3.55;;;2.17;;
73670;SDS011;61968;48.178;11.566;2023-07-02T10:21:41;4.00;;;2.38;;
73670;SDS011;61968;48.178;11.566;2023-07-02T10:24:11;3.95;;;1.77;;
73670;SDS011;61968;48.178;11.566;2023-07-02T10:26:50;2.08;;;1.60;;
73670;SDS011;61968;48.178;11.566;2023-07-02T10:29:18;1.80;;;1.65;;
73670;SDS011;61968;48.178;11.566;2023-07-02T10:31:47;3.35;;;2.15;;
73670;SDS011;61968;48.178;11.566;2023-07-02T10:34:14;3.03;;;2.22;;
73670;SDS011;61968;48.178;11.566;2023-07-02T10:36:41;5.57;;;2.65;;
73670;SDS011;61968;48.178;11.566;2023-07-02T10:39:07;10.82;;;2.40;;
73670;SDS011;61968;48.178;11.566;2023-07-02T10:41:34;2.83;;;2.30;;
73670;SDS011;61968;48.178;11.566;2023-07-02T10:44:09;4.57;;;2.15;;
73670;SDS011;61968;48.178;11.566;2023-07-02T10:46:42;3.40;;;2.63;;
73670;SDS011;61968;48.178;11.566;2023-07-02T10:49:09;7.45;;;2.85;;
73670;SDS011;61968;48.178;11.566;2023-07-02T10:51:36;3.90;;;2.25;;
73670;SDS011;61968;48.178;11.566;2023-07-02T10:54:03;2.92;;;2.63;;
73670;SDS011;61968;48.178;11.566;2023-07-02T10:56:30;8.77;;;2.95;;
73670;SDS011;61968;48.178;11.566;2023-07-02T10:58:58;3.53;;;2.90;;
73670;SDS011;61968;48.178;11.566;2023-07-02T11:01:26;5.32;;;3.58;;
73670;SDS011;61968;48.178;11.566;2023-07-02T11:03:57;6.70;;;3.17;;
73670;SDS011;61968;48.178;11.566;2023-07-02T11:06:25;10.55;;;6.07;;
73670;SDS011;61968;48.178;11.566;2023-07-02T11:08:51;5.38;;;3.72;;
73670;SDS011;61968;48.178;11.566;2023-07-02T11:11:19;7.95;;;3.67;;
73670;SDS011;61968;48.178;11.566;2023-07-02T11:13:47;4.97;;;3.42;;
73670;SDS011;61968;48.178;11.566;2023-07-02T11:16:21;5.45;;;3.20;;
73670;SDS011;61968;48.178;11.566;2023-07-02T11:18:52;6.20;;;3.15;;
73670;SDS011;61968;48.178;11.566;2023-07-02T11:21:19;7.10;;;4.32;;
73670;SDS011;61968;48.178;11.566;2023-07-02T11:23:46;9.82;;;5.68;;
73670;SDS011;61968;48.178;11.566;2023-07-02T11:26:13;23.50;;;12.23;;
73670;SDS011;61968;48.178;11.566;2023-07-02T11:28:47;14.00;;;9.63;;
73670;SDS011;61968;48.178;11.566;2023-07-02T11:31:23;10.15;;;5.32;;
73670;SDS011;61968;48.178;11.566;2023-07-02T11:33:50;11.02;;;5.60;;
73670;SDS011;61968;48.178;11.566;2023-07-02T11:36:20;9.98;;;5.20;;
73670;SDS011;61968;48.178;11.566;2023-07-02T11:38:49;9.07;;;5.57;;
73670;SDS011;61968;48.178;11.566;2023-07-02T11:41:16;10.77;;;5.93;;
73670;SDS011;61968;48.178;11.566;2023-07-02T11:43:43;9.10;;;5.53;;
73670;SDS011;61968;48.178;11.566;2023-07-02T11:46:09;8.43;;;5.00;;
73670;SDS011;61968;48.178;11.566;2023-07-02T11:48:36;14.25;;;6.55;;
73670;SDS011;61968;48.178;11.566;2023-07-02T11:51:02;11.80;;;4.85;;
73670;SDS011;61968;48.178;11.566;2023-07-02T11:53:31;11.07;;;5.47;;
73670;SDS011;61968;48.178;11.566;2023-07-02T11:55:57;13.45;;;8.88;;
73670;SDS011;61968;48.178;11.566;2023-07-02T11:58:23;14.13;;;7.35;;
73670;SDS011;61968;48.178;11.566;2023-07-02T12:00:51;29.38;;;15.75;;
73670;SDS011;61968;48.178;11.566;2023-07-02T12:03:18;54.33;;;28.52;;
73670;SDS011;61968;48.178;11.566;2023-07-02T12:05:44;22.30;;;12.50;;
73670;SDS011;61968;48.178;11.566;2023-07-02T12:08:11;11.75;;;7.68;;
73670;SDS011;61968;48.178;11.566;2023-07-02T12:10:39;13.82;;;6.35;;
73670;SDS011;61968;48.178;11.566;2023-07-02T12:13:06;15.55;;;7.32;;
73670;SDS011;61968;48.178;11.566;2023-07-02T12:15:32;20.38;;;9.98;;
73670;SDS011;61968;48.178;11.566;2023-07-02T12:17:59;16.73;;;10.45;;
73670;SDS011;61968;48.178;11.566;2023-07-02T12:20:25;12.15;;;7.30;;
73670;SDS011;61968;48.178;11.566;2023-07-02T12:22:52;11.77;;;6.32;;
73670;SDS011;61968;48.178;11.566;2023-07-02T12:25:19;14.82;;;6.15;;
73670;SDS011;61968;48.178;11.566;2023-07-02T12:27:47;13.98;;;7.25;;
73670;SDS011;61968;48.178;11.566;2023-07-02T12:30:13;13.20;;;8.48;;
73670;SDS011;61968;48.178;11.566;2023-07-02T12:32:42;12.85;;;6.95;;
73670;SDS011;61968;48.178;11.566;2023-07-02T12:35:09;15.27;;;8.35;;
73670;SDS011;61968;48.178;11.566;2023-07-02T12:37:42;15.88;;;8.95;;
73670;SDS011;61968;48.178;11.566;2023-07-02T12:40:09;18.70;;;11.73;;
73670;SDS011;61968;48.178;11.566;2023-07-02T12:42:36;19.70;;;11.27;;
73670;SDS011;61968;48.178;11.566;2023-07-02T12:45:06;13.85;;;8.55;;
73670;SDS011;61968;48.178;11.566;2023-07-02T12:47:34;17.77;;;7.65;;
73670;SDS011;61968;48.178;11.566;2023-07-02T12:50:00;16.92;;;7.25;;
73670;SDS011;61968;48.178;11.566;2023-07-02T12:52:28;13.13;;;7.60;;
73670;SDS011;61968;48.178;11.566;2023-07-02T12:54:54;11.30;;;7.35;;
73670;SDS011;61968;48.178;11.566;2023-07-02T12:57:20;10.98;;;7.03;;
73670;SDS011;61968;48.178;11.566;2023-07-02T12:59:47;14.57;;;7.20;;
73670;SDS011;61968;48.178;11.566;2023-07-02T13:02:15;13.02;;;6.75;;
73670;SDS011;61968;48.178;11.566;2023-07-02T13:04:41;12.32;;;7.55;;
73670;SDS011;61968;48.178;11.566;2023-07-02T13:07:08;14.43;;;7.63;;
73670;SDS011;61968;48.178;11.566;2023-07-02T13:09:34;17.60;;;9.05;;
73670;SDS011;61968;48.178;11.566;2023-07-02T13:12:01;26.75;;;12.82;;
73670;SDS011;61968;48.178;11.566;2023-07-02T13:14:27;20.30;;;9.18;;
73670;SDS011;61968;48.178;11.566;2023-07-02T13:16:54;19.98;;;9.35;;
73670;SDS011;61968;48.178;11.566;2023-07-02T13:19:22;20.88;;;10.02;;
73670;SDS011;61968;48.178;11.566;2023-07-02T13:21:48;18.50;;;9.30;;
73670;SDS011;61968;48.178;11.566;2023-07-02T13:24:15;24.60;;;11.02;;
73670;SDS011;61968;48.178;11.566;2023-07-02T13:26:41;26.58;;;10.75;;
73670;SDS011;61968;48.178;11.566;2023-07-02T13:29:07;35.55;;;17.63;;
73670;SDS011;61968;48.178;11.566;2023-07-02T13:31:34;20.00;;;10.23;;
73670;SDS011;61968;48.178;11.566;2023-07-02T13:34:00;14.93;;;9.02;;
73670;SDS011;61968;48.178;11.566;2023-07-02T13:36:28;19.23;;;10.38;;
73670;SDS011;61968;48.178;11.566;2023-07-02T13:38:55;18.80;;;9.30;;
73670;SDS011;61968;48.178;11.566;2023-07-02T13:41:21;25.20;;;10.85;;
73670;SDS011;61968;48.178;11.566;2023-07-02T13:43:48;15.60;;;8.85;;
73670;SDS011;61968;48.178;11.566;2023-07-02T13:46:14;15.93;;;9.20;;
73670;SDS011;61968;48.178;11.566;2023-07-02T13:48:42;16.73;;;10.40;;
73670;SDS011;61968;48.178;11.566;2023-07-02T13:51:08;16.60;;;10.07;;
73670;SDS011;61968;48.178;11.566;2023-07-02T13:53:36;22.55;;;9.82;;
73670;SDS011;61968;48.178;11.566;2023-07-02T13:56:03;16.30;;;9.55;;
73670;SDS011;61968;48.178;11.566;2023-07-02T14:01:12;21.58;;;10.30;;
73670;SDS011;61968;48.178;11.566;2023-07-02T14:03:38;21.70;;;11.77;;
73670;SDS011;61968;48.178;11.566;2023-07-02T14:06:05;32.60;;;17.50;;
73670;SDS011;61968;48.178;11.566;2023-07-02T14:08:31;33.83;;;20.80;;
73670;SDS011;61968;48.178;11.566;2023-07-02T14:10:58;23.88;;;13.98;;
73670;SDS011;61968;48.178;11.566;2023-07-02T14:13:24;24.02;;;12.75;;
73670;SDS011;61968;48.178;11.566;2023-07-02T14:15:51;18.60;;;10.93;;
73670;SDS011;61968;48.178;11.566;2023-07-02T14:18:19;17.33;;;10.65;;
73670;SDS011;61968;48.178;11.566;2023-07-02T14:20:45;17.35;;;10.95;;
73670;SDS011;61968;48.178;11.566;2023-07-02T14:23:12;19.17;;;10.73;;
73670;SDS011;61968;48.178;11.566;2023-07-02T14:25:38;19.73;;;10.38;;
73670;SDS011;61968;48.178;11.566;2023-07-02T14:28:07;16.35;;;10.43;;
73670;SDS011;61968;48.178;11.566;2023-07-02T14:30:34;28.58;;;16.38;;
73670;SDS011;61968;48.178;11.566;2023-07-02T14:33:01;26.95;;;14.50;;
73670;SDS011;61968;48.178;11.566;2023-07-02T14:35:30;22.95;;;12.23;;